sensor_id;sensor_type;location;lat;lon;timestamp;P1;durP1;ratioP1;P2;durP2;ratioP2
52494;SDS011;38405;53.212;5.660;2022-08-05T00:00:25;4.82;;;2.70;;
52494;SDS011;38405;53.212;5.660;2022-08-05T00:02:51;7.82;;;3.35;;
52494;SDS011;38405;53.212;5.660;2022-08-05T00:05:16;5.35;;;2.90;;
52494;SDS011;38405;53.212;5.660;2022-08-05T00:07:43;9.95;;;2.83;;
52494;SDS011;38405;53.212;5.660;2022-08-05T00:10:09;9.80;;;3.33;;
52494;SDS011;38405;53.212;5.660;2022-08-05T00:12:35;8.02;;;2.97;;
52494;SDS011;38405;53.212;5.660;2022-08-05T00:15:00;5.20;;;2.70;;
52494;SDS011;38405;53.212;5.660;2022-08-05T00:17:26;7.72;;;2.80;;
52494;SDS011;38405;53.212;5.660;2022-08-05T00:19:51;7.93;;;2.88;;
52494;SDS011;38405;53.212;5.660;2022-08-05T00:22:17;7.25;;;2.72;;
52494;SDS011;38405;53.212;5.660;2022-08-05T00:24:42;4.65;;;2.75;;
52494;SDS011;38405;53.212;5.660;2022-08-05T00:27:08;9.65;;;2.72;;
52494;SDS011;38405;53.212;5.660;2022-08-05T00:29:34;6.93;;;2.80;;
52494;SDS011;38405;53.212;5.660;2022-08-05T00:31:59;9.70;;;2.90;;
52494;SDS011;38405;53.212;5.660;2022-08-05T00:34:26;4.32;;;2.63;;
52494;SDS011;38405;53.212;5.660;2022-08-05T00:36:51;5.38;;;2.63;;
52494;SDS011;38405;53.212;5.660;2022-08-05T00:39:17;8.35;;;3.13;;
52494;SDS011;38405;53.212;5.660;2022-08-05T00:41:46;4.68;;;2.50;;
52494;SDS011;38405;53.212;5.660;2022-08-05T00:44:12;12.85;;;2.65;;
52494;SDS011;38405;53.212;5.660;2022-08-05T00:46:38;7.45;;;3.15;;
52494;SDS011;38405;53.212;5.660;2022-08-05T00:49:04;4.40;;;2.63;;
52494;SDS011;38405;53.212;5.660;2022-08-05T00:51:29;6.63;;;2.53;;
52494;SDS011;38405;53.212;5.660;2022-08-05T00:53:55;5.65;;;2.72;;
52494;SDS011;38405;53.212;5.660;2022-08-05T00:56:21;7.57;;;2.38;;
52494;SDS011;38405;53.212;5.660;2022-08-05T00:58:47;5.22;;;2.88;;
52494;SDS011;38405;53.212;5.660;2022-08-05T01:01:12;8.40;;;3.33;;
52494;SDS011;38405;53.212;5.660;2022-08-05T01:03:42;4.45;;;2.90;;
52494;SDS011;38405;53.212;5.660;2022-08-05T01:06:08;6.25;;;2.88;;
52494;SDS011;38405;53.212;5.660;2022-08-05T01:08:34;7.05;;;2.85;;
52494;SDS011;38405;53.212;5.660;2022-08-05T01:11:01;9.90;;;2.90;;
52494;SDS011;38405;53.212;5.660;2022-08-05T01:16:28;8.18;;;3.00;;
52494;SDS011;38405;53.212;5.660;2022-08-05T01:19:05;7.93;;;2.95;;
52494;SDS011;38405;53.212;5.660;2022-08-05T01:24:34;5.93;;;3.08;;
52494;SDS011;38405;53.212;5.660;2022-08-05T01:30:12;9.63;;;4.25;;
52494;SDS011;38405;53.212;5.660;2022-08-05T01:32:39;5.15;;;3.47;;
52494;SDS011;38405;53.212;5.660;2022-08-05T01:35:26;7.75;;;3.05;;
52494;SDS011;38405;53.212;5.660;2022-08-05T01:37:55;7.97;;;3.30;;
52494;SDS011;38405;53.212;5.660;2022-08-05T01:40:24;6.10;;;3.17;;
52494;SDS011;38405;53.212;5.660;2022-08-05T01:42:53;8.65;;;3.50;;
52494;SDS011;38405;53.212;5.660;2022-08-05T01:45:22;8.48;;;3.60;;
52494;SDS011;38405;53.212;5.660;2022-08-05T01:47:48;11.70;;;3.53;;
52494;SDS011;38405;53.212;5.660;2022-08-05T01:50:19;10.43;;;3.20;;
52494;SDS011;38405;53.212;5.660;2022-08-05T01:52:50;7.50;;;2.95;;
52494;SDS011;38405;53.212;5.660;2022-08-05T01:55:21;8.05;;;3.40;;
52494;SDS011;38405;53.212;5.660;2022-08-05T01:57:49;10.65;;;3.55;;
52494;SDS011;38405;53.212;5.660;2022-08-05T02:00:17;9.43;;;3.60;;
52494;SDS011;38405;53.212;5.660;2022-08-05T02:02:56;5.22;;;3.35;;
52494;SDS011;38405;53.212;5.660;2022-08-05T02:05:29;4.40;;;3.15;;
52494;SDS011;38405;53.212;5.660;2022-08-05T02:07:57;9.55;;;3.50;;
52494;SDS011;38405;53.212;5.660;2022-08-05T02:10:25;8.60;;;3.97;;
52494;SDS011;38405;53.212;5.660;2022-08-05T02:12:54;6.35;;;3.53;;
52494;SDS011;38405;53.212;5.660;2022-08-05T02:15:35;7.93;;;3.63;;
52494;SDS011;38405;53.212;5.660;2022-08-05T02:20:38;11.38;;;3.58;;
52494;SDS011;38405;53.212;5.660;2022-08-05T02:23:08;9.80;;;3.88;;
52494;SDS011;38405;53.212;5.660;2022-08-05T02:25:36;12.65;;;4.10;;
52494;SDS011;38405;53.212;5.660;2022-08-05T02:28:07;4.43;;;3.42;;
52494;SDS011;38405;53.212;5.660;2022-08-05T02:30:56;7.50;;;3.33;;
52494;SDS011;38405;53.212;5.660;2022-08-05T02:33:36;8.57;;;3.25;;
52494;SDS011;38405;53.212;5.660;2022-08-05T02:36:10;12.88;;;3.40;;
52494;SDS011;38405;53.212;5.660;2022-08-05T02:38:37;9.75;;;3.53;;
52494;SDS011;38405;53.212;5.660;2022-08-05T02:41:05;11.30;;;3.45;;
52494;SDS011;38405;53.212;5.660;2022-08-05T02:43:33;12.20;;;4.18;;
52494;SDS011;38405;53.212;5.660;2022-08-05T02:46:01;5.72;;;3.20;;
52494;SDS011;38405;53.212;5.660;2022-08-05T02:48:28;8.90;;;3.13;;
52494;SDS011;38405;53.212;5.660;2022-08-05T02:50:56;8.30;;;3.20;;
52494;SDS011;38405;53.212;5.660;2022-08-05T02:53:27;4.15;;;2.85;;
52494;SDS011;38405;53.212;5.660;2022-08-05T02:55:53;10.57;;;3.22;;
52494;SDS011;38405;53.212;5.660;2022-08-05T02:58:20;6.60;;;3.08;;
52494;SDS011;38405;53.212;5.660;2022-08-05T03:00:48;9.18;;;3.17;;
52494;SDS011;38405;53.212;5.660;2022-08-05T03:03:18;8.55;;;2.95;;
52494;SDS011;38405;53.212;5.660;2022-08-05T03:05:44;17.33;;;3.25;;
52494;SDS011;38405;53.212;5.660;2022-08-05T03:08:11;8.40;;;3.03;;
52494;SDS011;38405;53.212;5.660;2022-08-05T03:10:41;7.72;;;2.60;;
52494;SDS011;38405;53.212;5.660;2022-08-05T03:13:10;13.10;;;3.15;;
52494;SDS011;38405;53.212;5.660;2022-08-05T03:15:37;10.45;;;2.88;;
52494;SDS011;38405;53.212;5.660;2022-08-05T03:18:06;8.48;;;2.70;;
52494;SDS011;38405;53.212;5.660;2022-08-05T03:20:31;8.23;;;2.63;;
52494;SDS011;38405;53.212;5.660;2022-08-05T03:22:57;8.50;;;2.70;;
52494;SDS011;38405;53.212;5.660;2022-08-05T03:25:23;7.95;;;3.28;;
52494;SDS011;38405;53.212;5.660;2022-08-05T03:27:50;7.28;;;2.58;;
52494;SDS011;38405;53.212;5.660;2022-08-05T03:30:16;15.90;;;3.70;;
52494;SDS011;38405;53.212;5.660;2022-08-05T03:32:41;10.15;;;3.30;;
52494;SDS011;38405;53.212;5.660;2022-08-05T03:35:08;7.97;;;2.85;;
52494;SDS011;38405;53.212;5.660;2022-08-05T03:37:33;10.70;;;3.03;;
52494;SDS011;38405;53.212;5.660;2022-08-05T03:39:59;6.68;;;2.88;;
52494;SDS011;38405;53.212;5.660;2022-08-05T03:42:26;12.30;;;3.20;;
52494;SDS011;38405;53.212;5.660;2022-08-05T03:44:53;14.32;;;3.28;;
52494;SDS011;38405;53.212;5.660;2022-08-05T03:47:19;12.88;;;3.85;;
52494;SDS011;38405;53.212;5.660;2022-08-05T03:49:44;9.00;;;3.50;;
52494;SDS011;38405;53.212;5.660;2022-08-05T03:52:11;7.88;;;3.25;;
52494;SDS011;38405;53.212;5.660;2022-08-05T03:54:53;7.57;;;3.72;;
52494;SDS011;38405;53.212;5.660;2022-08-05T03:57:22;9.20;;;3.85;;
52494;SDS011;38405;53.212;5.660;2022-08-05T04:00:00;10.30;;;3.80;;
52494;SDS011;38405;53.212;5.660;2022-08-05T04:02:31;7.85;;;4.05;;
52494;SDS011;38405;53.212;5.660;2022-08-05T04:04:58;6.75;;;2.83;;
52494;SDS011;38405;53.212;5.660;2022-08-05T04:07:25;9.18;;;3.50;;
52494;SDS011;38405;53.212;5.660;2022-08-05T04:09:52;7.75;;;2.97;;
52494;SDS011;38405;53.212;5.660;2022-08-05T04:12:18;7.82;;;3.60;;
52494;SDS011;38405;53.212;5.660;2022-08-05T04:14:44;12.10;;;3.70;;
52494;SDS011;38405;53.212;5.660;2022-08-05T04:17:10;8.40;;;3.85;;
52494;SDS011;38405;53.212;5.660;2022-08-05T04:19:45;12.55;;;3.80;;
52494;SDS011;38405;53.212;5.660;2022-08-05T04:22:12;6.47;;;3.28;;
52494;SDS011;38405;53.212;5.660;2022-08-05T04:24:38;4.95;;;3.83;;
52494;SDS011;38405;53.212;5.660;2022-08-05T04:27:04;4.93;;;4.20;;
52494;SDS011;38405;53.212;5.660;2022-08-05T04:29:30;7.57;;;3.90;;
52494;SDS011;38405;53.212;5.660;2022-08-05T04:31:56;7.22;;;3.65;;
52494;SDS011;38405;53.212;5.660;2022-08-05T04:34:21;5.20;;;3.45;;
52494;SDS011;38405;53.212;5.660;2022-08-05T04:36:47;10.50;;;3.63;;
52494;SDS011;38405;53.212;5.660;2022-08-05T04:39:13;5.95;;;3.20;;
52494;SDS011;38405;53.212;5.660;2022-08-05T04:41:38;5.13;;;2.85;;
52494;SDS011;38405;53.212;5.660;2022-08-05T04:44:04;7.75;;;4.03;;
52494;SDS011;38405;53.212;5.660;2022-08-05T04:46:30;7.65;;;2.95;;
52494;SDS011;38405;53.212;5.660;2022-08-05T04:48:56;8.45;;;3.40;;
52494;SDS011;38405;53.212;5.660;2022-08-05T04:51:21;11.70;;;3.35;;
52494;SDS011;38405;53.212;5.660;2022-08-05T04:53:47;8.23;;;3.30;;
52494;SDS011;38405;53.212;5.660;2022-08-05T04:56:12;6.93;;;2.80;;
52494;SDS011;38405;53.212;5.660;2022-08-05T04:58:39;6.57;;;3.00;;
52494;SDS011;38405;53.212;5.660;2022-08-05T05:01:04;6.45;;;2.70;;
52494;SDS011;38405;53.212;5.660;2022-08-05T05:03:30;4.13;;;2.60;;
52494;SDS011;38405;53.212;5.660;2022-08-05T05:05:56;4.18;;;2.60;;
52494;SDS011;38405;53.212;5.660;2022-08-05T05:08:22;4.57;;;2.53;;
52494;SDS011;38405;53.212;5.660;2022-08-05T05:10:48;4.72;;;2.65;;
52494;SDS011;38405;53.212;5.660;2022-08-05T05:13:15;4.30;;;2.20;;
52494;SDS011;38405;53.212;5.660;2022-08-05T05:15:42;7.63;;;3.22;;
52494;SDS011;38405;53.212;5.660;2022-08-05T05:18:11;5.85;;;2.78;;
52494;SDS011;38405;53.212;5.660;2022-08-05T05:20:39;7.60;;;2.67;;
52494;SDS011;38405;53.212;5.660;2022-08-05T05:23:06;4.88;;;2.45;;
52494;SDS011;38405;53.212;5.660;2022-08-05T05:25:31;5.47;;;2.92;;
52494;SDS011;38405;53.212;5.660;2022-08-05T05:27:57;4.72;;;3.13;;
52494;SDS011;38405;53.212;5.660;2022-08-05T05:30:23;3.03;;;2.67;;
52494;SDS011;38405;53.212;5.660;2022-08-05T05:32:49;5.80;;;3.13;;
52494;SDS011;38405;53.212;5.660;2022-08-05T05:35:14;9.07;;;3.70;;
52494;SDS011;38405;53.212;5.660;2022-08-05T05:37:49;10.88;;;4.00;;
52494;SDS011;38405;53.212;5.660;2022-08-05T05:40:17;8.45;;;3.80;;
52494;SDS011;38405;53.212;5.660;2022-08-05T05:42:44;7.90;;;4.10;;
52494;SDS011;38405;53.212;5.660;2022-08-05T05:45:14;9.68;;;3.95;;
52494;SDS011;38405;53.212;5.660;2022-08-05T05:47:40;8.43;;;3.92;;
52494;SDS011;38405;53.212;5.660;2022-08-05T05:50:11;9.95;;;3.65;;
52494;SDS011;38405;53.212;5.660;2022-08-05T05:52:38;9.70;;;3.22;;
52494;SDS011;38405;53.212;5.660;2022-08-05T05:55:07;5.75;;;2.60;;
52494;SDS011;38405;53.212;5.660;2022-08-05T05:57:35;4.80;;;2.60;;
52494;SDS011;38405;53.212;5.660;2022-08-05T06:00:03;9.02;;;2.72;;
52494;SDS011;38405;53.212;5.660;2022-08-05T06:02:30;6.20;;;2.30;;
52494;SDS011;38405;53.212;5.660;2022-08-05T06:04:55;7.93;;;2.40;;
52494;SDS011;38405;53.212;5.660;2022-08-05T06:07:21;7.68;;;2.17;;
52494;SDS011;38405;53.212;5.660;2022-08-05T06:09:46;2.58;;;1.38;;
52494;SDS011;38405;53.212;5.660;2022-08-05T06:12:12;5.00;;;1.27;;
52494;SDS011;38405;53.212;5.660;2022-08-05T06:14:38;2.55;;;1.10;;
52494;SDS011;38405;53.212;5.660;2022-08-05T06:17:03;3.70;;;0.90;;
52494;SDS011;38405;53.212;5.660;2022-08-05T06:19:29;1.70;;;0.90;;
52494;SDS011;38405;53.212;5.660;2022-08-05T06:21:54;7.18;;;1.20;;
52494;SDS011;38405;53.212;5.660;2022-08-05T06:24:20;5.07;;;1.20;;
52494;SDS011;38405;53.212;5.660;2022-08-05T06:26:46;5.65;;;1.50;;
52494;SDS011;38405;53.212;5.660;2022-08-05T06:29:11;4.10;;;1.10;;
52494;SDS011;38405;53.212;5.660;2022-08-05T06:31:37;1.67;;;0.95;;
52494;SDS011;38405;53.212;5.660;2022-08-05T06:34:03;3.50;;;0.88;;
52494;SDS011;38405;53.212;5.660;2022-08-05T06:36:29;1.52;;;1.02;;
52494;SDS011;38405;53.212;5.660;2022-08-05T06:38:55;2.92;;;1.20;;
52494;SDS011;38405;53.212;5.660;2022-08-05T06:41:21;2.63;;;0.80;;
52494;SDS011;38405;53.212;5.660;2022-08-05T06:43:47;0.70;;;0.70;;
52494;SDS011;38405;53.212;5.660;2022-08-05T06:46:13;4.15;;;1.00;;
52494;SDS011;38405;53.212;5.660;2022-08-05T06:48:39;5.28;;;1.15;;
52494;SDS011;38405;53.212;5.660;2022-08-05T06:51:05;2.25;;;0.73;;
52494;SDS011;38405;53.212;5.660;2022-08-05T06:53:31;2.13;;;1.05;;
52494;SDS011;38405;53.212;5.660;2022-08-05T06:55:57;2.70;;;0.90;;
52494;SDS011;38405;53.212;5.660;2022-08-05T06:58:24;6.38;;;1.20;;
52494;SDS011;38405;53.212;5.660;2022-08-05T07:00:50;1.67;;;0.70;;
52494;SDS011;38405;53.212;5.660;2022-08-05T07:03:16;4.15;;;1.00;;
52494;SDS011;38405;53.212;5.660;2022-08-05T07:05:42;2.40;;;0.75;;
52494;SDS011;38405;53.212;5.660;2022-08-05T07:08:08;0.65;;;0.45;;
52494;SDS011;38405;53.212;5.660;2022-08-05T07:10:34;1.27;;;0.50;;
52494;SDS011;38405;53.212;5.660;2022-08-05T07:12:59;5.60;;;1.10;;
52494;SDS011;38405;53.212;5.660;2022-08-05T07:15:43;6.05;;;1.08;;
52494;SDS011;38405;53.212;5.660;2022-08-05T07:18:28;2.17;;;0.82;;
52494;SDS011;38405;53.212;5.660;2022-08-05T07:20:54;4.22;;;0.82;;
52494;SDS011;38405;53.212;5.660;2022-08-05T07:23:19;1.63;;;0.73;;
52494;SDS011;38405;53.212;5.660;2022-08-05T07:25:45;2.25;;;0.75;;
52494;SDS011;38405;53.212;5.660;2022-08-05T07:28:10;3.13;;;0.63;;
52494;SDS011;38405;53.212;5.660;2022-08-05T07:30:36;4.32;;;0.80;;
52494;SDS011;38405;53.212;5.660;2022-08-05T07:33:03;1.85;;;0.70;;
52494;SDS011;38405;53.212;5.660;2022-08-05T07:35:29;3.53;;;0.90;;
52494;SDS011;38405;53.212;5.660;2022-08-05T07:37:55;2.35;;;0.90;;
52494;SDS011;38405;53.212;5.660;2022-08-05T07:40:21;3.42;;;0.80;;
52494;SDS011;38405;53.212;5.660;2022-08-05T07:42:47;2.65;;;0.70;;
52494;SDS011;38405;53.212;5.660;2022-08-05T07:45:13;1.38;;;0.57;;
52494;SDS011;38405;53.212;5.660;2022-08-05T07:47:40;5.03;;;1.08;;
52494;SDS011;38405;53.212;5.660;2022-08-05T07:50:06;2.10;;;0.60;;
52494;SDS011;38405;53.212;5.660;2022-08-05T07:52:36;4.53;;;0.80;;
52494;SDS011;38405;53.212;5.660;2022-08-05T07:55:07;1.15;;;0.50;;
52494;SDS011;38405;53.212;5.660;2022-08-05T07:57:33;1.85;;;0.50;;
52494;SDS011;38405;53.212;5.660;2022-08-05T07:59:59;2.05;;;0.60;;
52494;SDS011;38405;53.212;5.660;2022-08-05T08:02:25;3.70;;;0.70;;
52494;SDS011;38405;53.212;5.660;2022-08-05T08:04:52;1.88;;;0.40;;
52494;SDS011;38405;53.212;5.660;2022-08-05T08:07:19;2.45;;;0.47;;
52494;SDS011;38405;53.212;5.660;2022-08-05T08:09:45;1.20;;;0.50;;
52494;SDS011;38405;53.212;5.660;2022-08-05T08:12:11;1.58;;;0.45;;
52494;SDS011;38405;53.212;5.660;2022-08-05T08:14:40;2.08;;;0.60;;
52494;SDS011;38405;53.212;5.660;2022-08-05T08:17:06;3.38;;;0.60;;
52494;SDS011;38405;53.212;5.660;2022-08-05T08:19:38;4.43;;;0.82;;
52494;SDS011;38405;53.212;5.660;2022-08-05T08:22:04;1.95;;;0.50;;
52494;SDS011;38405;53.212;5.660;2022-08-05T08:24:31;0.90;;;0.50;;
52494;SDS011;38405;53.212;5.660;2022-08-05T08:26:58;1.67;;;0.60;;
52494;SDS011;38405;53.212;5.660;2022-08-05T08:29:23;2.13;;;0.40;;
52494;SDS011;38405;53.212;5.660;2022-08-05T08:31:49;1.33;;;0.65;;
52494;SDS011;38405;53.212;5.660;2022-08-05T08:34:16;0.47;;;0.40;;
52494;SDS011;38405;53.212;5.660;2022-08-05T08:36:43;2.05;;;0.80;;
52494;SDS011;38405;53.212;5.660;2022-08-05T08:39:09;1.15;;;0.50;;
52494;SDS011;38405;53.212;5.660;2022-08-05T08:41:34;1.95;;;0.40;;
52494;SDS011;38405;53.212;5.660;2022-08-05T08:44:04;3.28;;;0.45;;
52494;SDS011;38405;53.212;5.660;2022-08-05T08:46:32;1.35;;;0.30;;
52494;SDS011;38405;53.212;5.660;2022-08-05T08:48:58;1.02;;;0.40;;
52494;SDS011;38405;53.212;5.660;2022-08-05T08:51:32;2.53;;;0.57;;
52494;SDS011;38405;53.212;5.660;2022-08-05T08:53:58;1.20;;;0.32;;
52494;SDS011;38405;53.212;5.660;2022-08-05T08:56:25;0.70;;;0.30;;
52494;SDS011;38405;53.212;5.660;2022-08-05T08:58:51;4.25;;;0.73;;
52494;SDS011;38405;53.212;5.660;2022-08-05T09:01:17;1.30;;;0.45;;
52494;SDS011;38405;53.212;5.660;2022-08-05T09:03:44;1.25;;;0.50;;
52494;SDS011;38405;53.212;5.660;2022-08-05T09:06:14;0.50;;;0.30;;
52494;SDS011;38405;53.212;5.660;2022-08-05T09:08:40;0.98;;;0.40;;
52494;SDS011;38405;53.212;5.660;2022-08-05T09:11:06;0.73;;;0.40;;
52494;SDS011;38405;53.212;5.660;2022-08-05T09:13:33;1.55;;;0.40;;
52494;SDS011;38405;53.212;5.660;2022-08-05T09:16:00;1.70;;;0.32;;
52494;SDS011;38405;53.212;5.660;2022-08-05T09:18:26;1.42;;;0.40;;
52494;SDS011;38405;53.212;5.660;2022-08-05T09:20:52;1.10;;;0.40;;
52494;SDS011;38405;53.212;5.660;2022-08-05T09:23:18;0.50;;;0.20;;
52494;SDS011;38405;53.212;5.660;2022-08-05T09:25:45;0.65;;;0.40;;
52494;SDS011;38405;53.212;5.660;2022-08-05T09:28:14;1.73;;;0.20;;
52494;SDS011;38405;53.212;5.660;2022-08-05T09:30:42;1.35;;;0.32;;
52494;SDS011;38405;53.212;5.660;2022-08-05T09:33:09;2.83;;;0.75;;
52494;SDS011;38405;53.212;5.660;2022-08-05T09:35:35;0.98;;;0.32;;
52494;SDS011;38405;53.212;5.660;2022-08-05T09:38:00;0.95;;;0.45;;
52494;SDS011;38405;53.212;5.660;2022-08-05T09:40:31;2.47;;;0.40;;
52494;SDS011;38405;53.212;5.660;2022-08-05T09:42:57;2.42;;;0.52;;
52494;SDS011;38405;53.212;5.660;2022-08-05T09:45:39;2.85;;;0.70;;
52494;SDS011;38405;53.212;5.660;2022-08-05T09:50:52;1.05;;;0.30;;
52494;SDS011;38405;53.212;5.660;2022-08-05T09:53:19;2.10;;;0.50;;
52494;SDS011;38405;53.212;5.660;2022-08-05T09:55:47;1.00;;;0.30;;
52494;SDS011;38405;53.212;5.660;2022-08-05T09:58:16;0.85;;;0.30;;
52494;SDS011;38405;53.212;5.660;2022-08-05T10:00:58;1.27;;;0.30;;
52494;SDS011;38405;53.212;5.660;2022-08-05T10:03:27;1.10;;;0.40;;
52494;SDS011;38405;53.212;5.660;2022-08-05T10:06:00;0.98;;;0.35;;
52494;SDS011;38405;53.212;5.660;2022-08-05T10:08:31;1.15;;;0.50;;
52494;SDS011;38405;53.212;5.660;2022-08-05T10:10:57;2.40;;;0.57;;
52494;SDS011;38405;53.212;5.660;2022-08-05T10:15:54;0.90;;;0.30;;
52494;SDS011;38405;53.212;5.660;2022-08-05T10:18:22;1.40;;;0.30;;
52494;SDS011;38405;53.212;5.660;2022-08-05T10:20:55;0.45;;;0.30;;
52494;SDS011;38405;53.212;5.660;2022-08-05T10:23:24;1.23;;;0.30;;
52494;SDS011;38405;53.212;5.660;2022-08-05T10:25:53;0.43;;;0.20;;
52494;SDS011;38405;53.212;5.660;2022-08-05T10:28:26;2.28;;;0.50;;
52494;SDS011;38405;53.212;5.660;2022-08-05T10:30:53;0.73;;;0.30;;
52494;SDS011;38405;53.212;5.660;2022-08-05T10:33:19;0.75;;;0.30;;
52494;SDS011;38405;53.212;5.660;2022-08-05T10:35:48;1.63;;;0.63;;
52494;SDS011;38405;53.212;5.660;2022-08-05T10:38:14;1.73;;;0.40;;
52494;SDS011;38405;53.212;5.660;2022-08-05T10:40:46;1.65;;;0.40;;
52494;SDS011;38405;53.212;5.660;2022-08-05T10:46:10;1.40;;;0.50;;
52494;SDS011;38405;53.212;5.660;2022-08-05T10:48:41;0.73;;;0.40;;
52494;SDS011;38405;53.212;5.660;2022-08-05T10:51:17;1.42;;;0.30;;
52494;SDS011;38405;53.212;5.660;2022-08-05T10:54:02;0.52;;;0.20;;
52494;SDS011;38405;53.212;5.660;2022-08-05T10:56:28;0.95;;;0.30;;
52494;SDS011;38405;53.212;5.660;2022-08-05T10:59:04;3.72;;;0.40;;
52494;SDS011;38405;53.212;5.660;2022-08-05T11:11:45;2.50;;;0.55;;
52494;SDS011;38405;53.212;5.660;2022-08-05T11:14:19;2.60;;;0.50;;
52494;SDS011;38405;53.212;5.660;2022-08-05T11:19:55;1.92;;;0.90;;
52494;SDS011;38405;53.212;5.660;2022-08-05T11:33:26;2.08;;;0.50;;
52494;SDS011;38405;53.212;5.660;2022-08-05T11:35:55;1.88;;;0.40;;
52494;SDS011;38405;53.212;5.660;2022-08-05T11:46:28;1.27;;;0.52;;
52494;SDS011;38405;53.212;5.660;2022-08-05T11:48:54;4.88;;;0.50;;
52494;SDS011;38405;53.212;5.660;2022-08-05T11:51:20;4.55;;;1.05;;
52494;SDS011;38405;53.212;5.660;2022-08-05T11:53:47;2.67;;;0.60;;
52494;SDS011;38405;53.212;5.660;2022-08-05T11:56:13;0.35;;;0.25;;
52494;SDS011;38405;53.212;5.660;2022-08-05T11:58:40;0.43;;;0.30;;
52494;SDS011;38405;53.212;5.660;2022-08-05T12:01:12;2.13;;;0.60;;
52494;SDS011;38405;53.212;5.660;2022-08-05T12:03:43;2.67;;;0.50;;
52494;SDS011;38405;53.212;5.660;2022-08-05T12:06:23;0.60;;;0.40;;
52494;SDS011;38405;53.212;5.660;2022-08-05T12:08:50;0.70;;;0.50;;
52494;SDS011;38405;53.212;5.660;2022-08-05T12:11:18;0.57;;;0.30;;
52494;SDS011;38405;53.212;5.660;2022-08-05T12:14:04;1.73;;;0.30;;
52494;SDS011;38405;53.212;5.660;2022-08-05T12:16:39;2.10;;;0.40;;
52494;SDS011;38405;53.212;5.660;2022-08-05T12:19:06;0.50;;;0.30;;
52494;SDS011;38405;53.212;5.660;2022-08-05T12:21:35;1.15;;;0.40;;
52494;SDS011;38405;53.212;5.660;2022-08-05T12:24:11;2.05;;;0.22;;
52494;SDS011;38405;53.212;5.660;2022-08-05T12:26:46;1.80;;;0.40;;
52494;SDS011;38405;53.212;5.660;2022-08-05T12:29:18;1.13;;;0.30;;
52494;SDS011;38405;53.212;5.660;2022-08-05T12:31:51;1.20;;;0.35;;
52494;SDS011;38405;53.212;5.660;2022-08-05T12:34:20;3.30;;;0.40;;
52494;SDS011;38405;53.212;5.660;2022-08-05T12:36:54;1.67;;;0.40;;
52494;SDS011;38405;53.212;5.660;2022-08-05T12:39:22;2.35;;;0.35;;
52494;SDS011;38405;53.212;5.660;2022-08-05T12:41:48;8.10;;;1.50;;
52494;SDS011;38405;53.212;5.660;2022-08-05T12:44:14;10.23;;;1.58;;
52494;SDS011;38405;53.212;5.660;2022-08-05T12:46:42;9.35;;;1.80;;
52494;SDS011;38405;53.212;5.660;2022-08-05T12:49:17;10.90;;;2.15;;
52494;SDS011;38405;53.212;5.660;2022-08-05T12:51:52;6.85;;;1.60;;
52494;SDS011;38405;53.212;5.660;2022-08-05T12:54:25;6.18;;;1.50;;
52494;SDS011;38405;53.212;5.660;2022-08-05T12:56:56;8.65;;;1.13;;
52494;SDS011;38405;53.212;5.660;2022-08-05T12:59:30;6.68;;;1.35;;
52494;SDS011;38405;53.212;5.660;2022-08-05T13:02:02;8.60;;;1.15;;
52494;SDS011;38405;53.212;5.660;2022-08-05T13:04:31;3.58;;;0.75;;
52494;SDS011;38405;53.212;5.660;2022-08-05T13:06:57;5.38;;;0.80;;
52494;SDS011;38405;53.212;5.660;2022-08-05T13:09:25;3.92;;;0.65;;
52494;SDS011;38405;53.212;5.660;2022-08-05T13:11:54;4.00;;;0.80;;
52494;SDS011;38405;53.212;5.660;2022-08-05T13:14:33;3.88;;;0.77;;
52494;SDS011;38405;53.212;5.660;2022-08-05T13:17:23;1.23;;;0.50;;
52494;SDS011;38405;53.212;5.660;2022-08-05T13:20:04;1.63;;;0.40;;
52494;SDS011;38405;53.212;5.660;2022-08-05T13:25:01;4.15;;;0.52;;
52494;SDS011;38405;53.212;5.660;2022-08-05T13:27:30;2.38;;;0.60;;
52494;SDS011;38405;53.212;5.660;2022-08-05T13:30:17;3.85;;;0.90;;
52494;SDS011;38405;53.212;5.660;2022-08-05T13:32:45;3.88;;;1.17;;
52494;SDS011;38405;53.212;5.660;2022-08-05T13:35:14;2.50;;;0.90;;
52494;SDS011;38405;53.212;5.660;2022-08-05T13:37:40;1.92;;;0.68;;
52494;SDS011;38405;53.212;5.660;2022-08-05T13:40:07;2.55;;;0.75;;
52494;SDS011;38405;53.212;5.660;2022-08-05T13:42:33;2.10;;;0.73;;
52494;SDS011;38405;53.212;5.660;2022-08-05T13:44:59;1.55;;;0.50;;
52494;SDS011;38405;53.212;5.660;2022-08-05T13:47:25;0.43;;;0.40;;
52494;SDS011;38405;53.212;5.660;2022-08-05T13:49:51;1.63;;;0.50;;
52494;SDS011;38405;53.212;5.660;2022-08-05T13:52:20;2.58;;;0.77;;
52494;SDS011;38405;53.212;5.660;2022-08-05T13:54:47;2.08;;;0.50;;
52494;SDS011;38405;53.212;5.660;2022-08-05T13:57:13;0.93;;;0.50;;
52494;SDS011;38405;53.212;5.660;2022-08-05T13:59:39;1.23;;;0.40;;
52494;SDS011;38405;53.212;5.660;2022-08-05T14:02:06;2.47;;;0.60;;
52494;SDS011;38405;53.212;5.660;2022-08-05T14:04:34;0.77;;;0.40;;
52494;SDS011;38405;53.212;5.660;2022-08-05T14:07:21;3.75;;;0.80;;
52494;SDS011;38405;53.212;5.660;2022-08-05T14:09:48;4.40;;;0.70;;
52494;SDS011;38405;53.212;5.660;2022-08-05T14:12:14;1.35;;;0.70;;
52494;SDS011;38405;53.212;5.660;2022-08-05T14:14:41;4.07;;;0.63;;
52494;SDS011;38405;53.212;5.660;2022-08-05T14:17:10;4.00;;;0.75;;
52494;SDS011;38405;53.212;5.660;2022-08-05T14:19:37;1.85;;;0.60;;
52494;SDS011;38405;53.212;5.660;2022-08-05T14:22:03;2.42;;;0.70;;
52494;SDS011;38405;53.212;5.660;2022-08-05T14:24:29;1.67;;;0.70;;
52494;SDS011;38405;53.212;5.660;2022-08-05T14:26:54;1.10;;;0.47;;
52494;SDS011;38405;53.212;5.660;2022-08-05T14:29:20;2.03;;;0.60;;
52494;SDS011;38405;53.212;5.660;2022-08-05T14:31:46;3.17;;;0.50;;
52494;SDS011;38405;53.212;5.660;2022-08-05T14:34:14;2.75;;;0.75;;
52494;SDS011;38405;53.212;5.660;2022-08-05T14:36:40;1.77;;;0.50;;
52494;SDS011;38405;53.212;5.660;2022-08-05T14:39:06;2.28;;;0.55;;
52494;SDS011;38405;53.212;5.660;2022-08-05T14:41:33;1.13;;;0.50;;
52494;SDS011;38405;53.212;5.660;2022-08-05T14:43:59;1.40;;;0.40;;
52494;SDS011;38405;53.212;5.660;2022-08-05T14:46:25;3.05;;;0.30;;
52494;SDS011;38405;53.212;5.660;2022-08-05T14:48:52;1.95;;;0.50;;
52494;SDS011;38405;53.212;5.660;2022-08-05T14:51:19;1.55;;;0.52;;
52494;SDS011;38405;53.212;5.660;2022-08-05T14:53:45;1.58;;;0.40;;
52494;SDS011;38405;53.212;5.660;2022-08-05T14:56:13;1.92;;;0.30;;
52494;SDS011;38405;53.212;5.660;2022-08-05T14:58:39;2.30;;;0.77;;
52494;SDS011;38405;53.212;5.660;2022-08-05T15:01:05;2.10;;;0.60;;
52494;SDS011;38405;53.212;5.660;2022-08-05T15:03:31;1.33;;;0.60;;
52494;SDS011;38405;53.212;5.660;2022-08-05T15:05:56;2.65;;;0.57;;
52494;SDS011;38405;53.212;5.660;2022-08-05T15:08:22;2.03;;;0.75;;
52494;SDS011;38405;53.212;5.660;2022-08-05T15:10:49;0.43;;;0.38;;
52494;SDS011;38405;53.212;5.660;2022-08-05T15:13:15;4.00;;;0.82;;
52494;SDS011;38405;53.212;5.660;2022-08-05T15:15:41;3.60;;;0.40;;
52494;SDS011;38405;53.212;5.660;2022-08-05T15:18:07;1.05;;;0.40;;
52494;SDS011;38405;53.212;5.660;2022-08-05T15:20:33;3.20;;;0.60;;
52494;SDS011;38405;53.212;5.660;2022-08-05T15:23:05;4.80;;;0.63;;
52494;SDS011;38405;53.212;5.660;2022-08-05T15:25:32;10.50;;;1.17;;
52494;SDS011;38405;53.212;5.660;2022-08-05T15:27:58;5.05;;;1.20;;
52494;SDS011;38405;53.212;5.660;2022-08-05T15:30:24;4.32;;;0.80;;
52494;SDS011;38405;53.212;5.660;2022-08-05T15:32:50;6.88;;;1.10;;
52494;SDS011;38405;53.212;5.660;2022-08-05T15:35:16;2.70;;;0.80;;
52494;SDS011;38405;53.212;5.660;2022-08-05T15:37:41;4.63;;;0.90;;
52494;SDS011;38405;53.212;5.660;2022-08-05T15:40:07;3.10;;;0.88;;
52494;SDS011;38405;53.212;5.660;2022-08-05T15:42:34;2.08;;;0.60;;
52494;SDS011;38405;53.212;5.660;2022-08-05T15:44:59;1.88;;;0.68;;